Time;durP1;ratioP1;P1;durP2;ratioP2;P2;SDS_P1;SDS_P2;PMS_P1;PMS_P2;Temp;Humidity;BMP_temperature;BMP_pressure;BME280_temperature;BME280_humidity;BME280_pressure;Samples;Min_cycle;Max_cycle;Signal;HPM_P1;HPM_P2
2021/12/15 00:01:05;;;;;;;60.08;24.00;;;9.90;99.90;;;;;;5094296;27;20043;-87
2021/12/15 00:03:31;;;;;;;61.63;24.23;;;9.70;99.90;;;;;;5109008;27;20047;-87
2021/12/15 00:05:58;;;;;;;61.28;24.92;;;9.60;99.90;;;;;;5079461;28;20039;-87
2021/12/15 00:08:24;;;;;;;50.10;24.40;;;9.70;99.90;;;;;;5071211;28;20071;-87
2021/12/15 00:10:50;;;;;;;64.28;24.17;;;9.70;99.90;;;;;;5074458;28;20078;-86
2021/12/15 00:13:18;;;;;;;63.05;23.98;;;9.70;99.90;;;;;;5108989;28;20051;-87
2021/12/15 00:15:46;;;;;;;69.10;24.33;;;9.70;99.90;;;;;;5088455;28;20052;-87
2021/12/15 00:18:12;;;;;;;69.28;25.48;;;9.70;99.90;;;;;;5089255;28;20093;-86
2021/12/15 00:20:39;;;;;;;59.55;24.00;;;9.70;99.90;;;;;;5105965;28;20419;-86
2021/12/15 00:23:05;;;;;;;62.38;23.38;;;9.70;99.90;;;;;;5082850;28;20148;-86
2021/12/15 00:25:34;;;;;;;55.72;22.35;;;9.70;99.90;;;;;;5097084;28;20118;-86
2021/12/15 00:27:59;;;;;;;59.50;24.17;;;9.70;99.90;;;;;;5095009;28;20064;-86
2021/12/15 00:30:25;;;;;;;63.28;23.75;;;9.60;99.90;;;;;;5096294;28;20175;-87
2021/12/15 00:32:52;;;;;;;56.40;23.42;;;9.70;99.90;;;;;;5073740;28;20044;-87
2021/12/15 00:35:18;;;;;;;65.40;23.70;;;9.70;99.90;;;;;;5074468;28;20646;-87
2021/12/15 00:37:44;;;;;;;61.05;23.77;;;9.70;99.90;;;;;;5073472;28;20042;-86
2021/12/15 00:40:12;;;;;;;54.33;21.38;;;9.70;99.90;;;;;;5090332;28;20051;-86
2021/12/15 00:42:39;;;;;;;61.17;22.75;;;9.70;99.90;;;;;;5082648;28;20097;-86
2021/12/15 00:45:06;;;;;;;63.88;21.10;;;9.90;99.90;;;;;;5074868;28;20055;-86
2021/12/15 00:47:32;;;;;;;56.28;22.63;;;9.70;99.90;;;;;;5093436;28;20044;-86
2021/12/15 00:49:58;;;;;;;60.78;22.33;;;9.70;99.90;;;;;;5099408;28;20092;-87
2021/12/15 00:52:23;;;;;;;59.40;22.77;;;9.70;99.90;;;;;;5081874;28;20439;-86
2021/12/15 00:54:50;;;;;;;52.95;22.17;;;9.70;99.90;;;;;;5091288;28;20036;-86
2021/12/15 00:57:15;;;;;;;56.47;22.35;;;9.80;99.90;;;;;;5080062;28;20082;-86
2021/12/15 00:59:41;;;;;;;49.42;21.02;;;9.70;99.90;;;;;;5073823;28;20040;-87
2021/12/15 01:02:09;;;;;;;46.38;20.67;;;9.90;99.90;;;;;;5092812;28;20040;-87
2021/12/15 01:04:36;;;;;;;53.92;22.02;;;9.70;99.90;;;;;;5091946;28;20820;-86
2021/12/15 01:07:07;;;;;;;51.97;22.98;;;9.70;99.90;;;;;;5084679;28;20581;-86
2021/12/15 01:09:43;;;;;;;54.85;22.50;;;9.70;99.90;;;;;;5071512;28;20043;-86
2021/12/15 01:12:18;;;;;;;53.65;23.15;;;9.70;99.90;;;;;;5088898;28;20098;-86
2021/12/15 01:20:39;;;;;;;58.42;21.75;;;9.80;99.90;;;;;;5092692;28;20058;-85
2021/12/15 01:23:08;;;;;;;56.03;22.02;;;9.70;99.90;;;;;;5074551;28;20415;-85
2021/12/15 01:25:39;;;;;;;58.20;22.70;;;9.70;99.90;;;;;;5078910;28;20039;-85
2021/12/15 01:28:05;;;;;;;54.35;23.00;;;9.70;99.90;;;;;;5086497;28;20040;-85
2021/12/15 01:30:34;;;;;;;50.92;22.48;;;10.50;99.90;;;;;;5089303;28;20047;-85
2021/12/15 01:33:02;;;;;;;62.10;24.60;;;10.20;99.90;;;;;;5073092;28;20040;-84
2021/12/15 01:35:28;;;;;;;55.55;23.17;;;9.80;99.90;;;;;;5076298;28;20043;-85
2021/12/15 01:37:55;;;;;;;58.28;24.38;;;10.40;99.90;;;;;;5093343;28;20074;-86
2021/12/15 01:40:34;;;;;;;55.92;24.02;;;9.80;99.90;;;;;;5086974;27;20043;-85
2021/12/15 01:43:04;;;;;;;51.95;24.23;;;9.80;99.90;;;;;;5104983;28;20138;-85
2021/12/15 01:48:15;;;;;;;72.30;26.85;;;9.80;99.90;;;;;;5099372;27;20054;-85
2021/12/15 01:50:42;;;;;;;58.45;25.45;;;9.80;99.90;;;;;;5088353;27;20134;-84
2021/12/15 01:53:09;;;;;;;55.40;24.45;;;10.00;99.90;;;;;;5096529;28;20050;-85
2021/12/15 01:55:35;;;;;;;70.82;26.90;;;10.60;99.90;;;;;;5078080;28;20487;-86
2021/12/15 01:58:02;;;;;;;58.47;25.13;;;9.80;99.90;;;;;;5092453;27;20043;-85
2021/12/15 02:00:35;;;;;;;62.80;26.83;;;9.90;99.90;;;;;;5094611;27;20134;-85
2021/12/15 02:03:02;;;;;;;64.45;26.92;;;9.80;99.90;;;;;;5095363;27;20118;-85
2021/12/15 02:05:30;;;;;;;61.78;27.33;;;9.80;99.90;;;;;;5094239;27;20069;-86
2021/12/15 02:07:55;;;;;;;65.30;26.65;;;9.90;99.90;;;;;;5088534;27;20043;-85
2021/12/15 02:10:24;;;;;;;59.78;26.00;;;9.80;99.90;;;;;;5075200;28;20039;-86
2021/12/15 02:12:50;;;;;;;59.53;27.02;;;9.80;99.90;;;;;;5087754;27;20100;-86
2021/12/15 02:15:24;;;;;;;62.80;28.02;;;9.80;99.90;;;;;;5079450;27;20384;-86
2021/12/15 02:17:50;;;;;;;64.90;28.52;;;9.80;99.90;;;;;;5084541;27;20427;-84
2021/12/15 02:20:19;;;;;;;65.68;27.38;;;9.80;99.90;;;;;;5094471;27;20145;-84
2021/12/15 02:22:45;;;;;;;61.95;26.90;;;9.80;99.90;;;;;;5078598;28;20102;-85
2021/12/15 02:25:14;;;;;;;62.47;27.02;;;9.80;99.90;;;;;;5076694;28;20710;-86
2021/12/15 02:27:40;;;;;;;60.95;27.27;;;10.30;99.90;;;;;;5092678;28;20051;-85
2021/12/15 02:38:29;;;;;;;57.25;27.25;;;9.90;99.90;;;;;;5103938;28;20104;-85
2021/12/15 02:41:04;;;;;;;62.55;27.17;;;9.80;99.90;;;;;;5088843;28;20056;-85
2021/12/15 02:43:30;;;;;;;69.95;27.75;;;9.80;99.90;;;;;;5090270;27;20197;-85
2021/12/15 02:45:56;;;;;;;70.03;27.80;;;9.80;99.90;;;;;;5086974;27;20056;-84
2021/12/15 02:48:22;;;;;;;60.17;27.48;;;9.80;99.90;;;;;;5080009;27;20047;-84
2021/12/15 02:50:47;;;;;;;70.78;27.55;;;9.80;99.90;;;;;;5099240;27;20054;-85
2021/12/15 02:53:13;;;;;;;66.68;27.73;;;9.90;99.90;;;;;;5078535;27;20500;-85
2021/12/15 02:55:39;;;;;;;63.08;28.15;;;10.30;99.90;;;;;;5091677;27;20491;-85
2021/12/15 02:58:06;;;;;;;69.47;27.63;;;9.80;99.90;;;;;;5093439;27;20058;-87
2021/12/15 03:00:47;;;;;;;66.15;28.45;;;9.80;99.90;;;;;;5104840;28;20070;-85
2021/12/15 03:03:47;;;;;;;66.22;27.38;;;9.80;99.90;;;;;;5090628;28;20059;-85
2021/12/15 03:06:17;;;;;;;60.28;27.40;;;9.80;99.90;;;;;;5100117;27;20051;-85
2021/12/15 03:17:16;;;;;;;65.45;27.88;;;9.80;99.90;;;;;;5013941;28;20126;-86
2021/12/15 03:19:42;;;;;;;65.20;28.27;;;9.90;99.90;;;;;;5034127;28;20544;-85
2021/12/15 03:22:08;;;;;;;56.90;27.80;;;9.80;99.90;;;;;;5045087;28;20104;-84
2021/12/15 03:24:33;;;;;;;64.72;29.33;;;9.80;99.90;;;;;;5099352;27;20058;-85
2021/12/15 03:27:12;;;;;;;62.45;29.80;;;9.80;99.90;;;;;;5093023;27;20053;-86
2021/12/15 03:37:39;;;;;;;58.53;29.42;;;9.80;99.90;;;;;;5091644;28;20036;-85
2021/12/15 03:40:15;;;;;;;66.80;28.48;;;10.10;99.90;;;;;;5083346;28;20590;-84
2021/12/15 03:42:44;;;;;;;61.40;28.75;;;9.80;99.90;;;;;;5092756;27;20042;-85
2021/12/15 03:45:15;;;;;;;66.03;28.85;;;9.80;99.90;;;;;;5099125;27;20065;-85
2021/12/15 03:47:44;;;;;;;64.13;26.67;;;10.20;99.90;;;;;;5080157;27;20122;-86
2021/12/15 03:50:13;;;;;;;65.05;28.30;;;9.80;99.90;;;;;;5083401;28;20104;-85
2021/12/15 03:52:40;;;;;;;55.80;26.75;;;9.80;99.90;;;;;;5087122;28;20917;-84
2021/12/15 03:55:08;;;;;;;61.72;27.42;;;9.80;99.90;;;;;;5081554;27;20046;-85
2021/12/15 03:57:34;;;;;;;63.03;28.95;;;9.80;99.90;;;;;;5090786;27;20081;-85
2021/12/15 04:00:01;;;;;;;61.70;26.40;;;10.30;99.90;;;;;;5082084;28;20048;-84
2021/12/15 04:02:27;;;;;;;61.60;27.63;;;9.90;99.90;;;;;;5078870;27;20400;-84
2021/12/15 04:04:53;;;;;;;60.35;27.35;;;10.50;99.90;;;;;;5100419;28;20438;-84
2021/12/15 04:07:20;;;;;;;62.85;28.17;;;9.80;99.90;;;;;;5105465;28;20462;-84
2021/12/15 04:09:47;;;;;;;61.33;27.27;;;9.80;99.90;;;;;;5086695;28;20505;-84
2021/12/15 04:12:13;;;;;;;59.10;26.55;;;9.90;99.90;;;;;;5080164;28;20131;-85
2021/12/15 04:14:45;;;;;;;58.13;25.27;;;10.20;99.90;;;;;;5070479;28;20531;-85
2021/12/15 04:17:26;;;;;;;62.03;26.95;;;9.80;99.90;;;;;;5102367;28;20415;-84
2021/12/15 04:20:02;;;;;;;62.55;27.60;;;9.80;99.90;;;;;;5076983;27;20079;-84
2021/12/15 04:22:28;;;;;;;54.72;25.98;;;9.80;99.90;;;;;;5082918;28;20062;-84
2021/12/15 04:24:55;;;;;;;57.20;26.27;;;10.10;99.90;;;;;;5109551;28;20043;-85
2021/12/15 04:27:21;;;;;;;57.33;26.08;;;9.50;99.90;;;;;;5094902;27;20050;-85
2021/12/15 04:29:48;;;;;;;58.90;25.65;;;9.80;99.90;;;;;;5085962;28;20039;-84
2021/12/15 04:32:30;;;;;;;58.13;26.05;;;9.80;99.90;;;;;;5090878;28;20533;-85
2021/12/15 04:34:56;;;;;;;;;;;9.90;99.90;;;;;;5109415;28;20079;-85
2021/12/15 04:37:22;;;;;;;62.50;26.83;;;9.80;99.90;;;;;;5082478;28;20344;-84
2021/12/15 04:39:48;;;;;;;55.95;26.85;;;9.80;99.90;;;;;;5091489;28;20098;-85
2021/12/15 04:42:16;;;;;;;56.55;25.23;;;9.80;99.90;;;;;;5107446;28;20082;-85
2021/12/15 04:44:42;;;;;;;58.13;25.65;;;9.80;99.90;;;;;;5094422;27;20043;-84
2021/12/15 04:47:10;;;;;;;55.03;26.25;;;9.80;99.90;;;;;;5102828;27;20043;-85
2021/12/15 04:49:47;;;;;;;57.78;26.05;;;9.80;99.90;;;;;;5087429;27;20107;-84
2021/12/15 04:52:16;;;;;;;62.83;25.67;;;9.80;99.90;;;;;;5087473;28;20070;-85
2021/12/15 04:54:42;;;;;;;57.63;25.63;;;9.90;99.90;;;;;;5108918;28;20082;-83
2021/12/15 04:57:09;;;;;;;59.17;25.73;;;9.80;99.90;;;;;;5095200;27;20046;-84
2021/12/15 04:59:35;;;;;;;51.38;23.83;;;9.90;99.90;;;;;;5090318;28;20055;-84
2021/12/15 05:02:01;;;;;;;63.17;25.77;;;9.80;99.90;;;;;;5088332;28;20057;-85
2021/12/15 05:04:27;;;;;;;60.03;26.25;;;9.80;99.90;;;;;;5105793;27;20066;-83
2021/12/15 05:06:53;;;;;;;56.33;27.05;;;9.80;99.90;;;;;;5098800;28;20054;-84
2021/12/15 05:09:20;;;;;;;62.22;28.00;;;9.80;99.90;;;;;;5080824;28;20043;-85
2021/12/15 05:11:47;;;;;;;65.25;26.95;;;9.80;99.90;;;;;;5082672;28;20055;-84
2021/12/15 05:14:13;;;;;;;61.38;26.50;;;9.80;99.90;;;;;;5092505;28;20043;-84
2021/12/15 05:16:39;;;;;;;62.83;28.10;;;9.80;99.90;;;;;;5101668;27;20072;-84
2021/12/15 05:19:05;;;;;;;66.47;26.60;;;9.80;99.90;;;;;;5081499;28;20039;-84
2021/12/15 05:21:31;;;;;;;60.05;25.95;;;9.80;99.90;;;;;;5091206;28;20044;-84
2021/12/15 05:24:02;;;;;;;60.78;28.23;;;9.80;99.90;;;;;;5084086;28;20499;-84
2021/12/15 05:26:29;;;;;;;60.38;27.23;;;9.80;99.90;;;;;;5094982;27;20051;-84
2021/12/15 05:28:55;;;;;;;67.30;26.90;;;9.80;99.90;;;;;;5109552;27;20031;-84
2021/12/15 05:31:21;;;;;;;64.15;27.77;;;9.80;99.90;;;;;;5096357;28;20491;-84
2021/12/15 05:33:47;;;;;;;62.70;28.15;;;9.80;99.90;;;;;;5079695;28;20400;-84
2021/12/15 05:36:12;;;;;;;63.83;27.30;;;9.80;99.90;;;;;;5082583;27;20093;-84
2021/12/15 05:38:39;;;;;;;60.63;27.65;;;9.80;99.90;;;;;;5076411;27;20558;-84
2021/12/15 05:41:04;;;;;;;66.63;28.80;;;9.80;99.90;;;;;;5111920;27;20051;-83
2021/12/15 05:43:30;;;;;;;64.85;28.05;;;9.80;99.90;;;;;;5089605;28;20054;-83
2021/12/15 05:45:56;;;;;;;61.55;27.92;;;9.80;99.90;;;;;;5087765;27;20046;-84
2021/12/15 05:48:21;;;;;;;71.97;27.95;;;9.70;99.90;;;;;;5106884;27;20047;-83
2021/12/15 05:50:50;;;;;;;74.93;29.00;;;9.80;99.90;;;;;;5091687;27;20499;-84
2021/12/15 05:53:16;;;;;;;62.03;26.17;;;9.80;99.90;;;;;;5074244;28;20047;-84
2021/12/15 05:55:43;;;;;;;59.05;27.73;;;9.70;99.90;;;;;;5073772;28;20044;-83
2021/12/15 05:58:12;;;;;;;64.22;27.80;;;9.80;99.90;;;;;;5091280;27;20043;-83
2021/12/15 06:00:40;;;;;;;65.43;28.02;;;9.80;99.90;;;;;;5084876;28;20046;-84
2021/12/15 06:03:06;;;;;;;58.83;28.38;;;9.80;99.90;;;;;;5093452;27;20409;-84
2021/12/15 06:05:33;;;;;;;64.65;28.45;;;9.80;99.90;;;;;;5089483;27;20040;-83
2021/12/15 06:07:58;;;;;;;57.42;25.35;;;10.50;99.90;;;;;;5082560;27;20039;-84
2021/12/15 06:10:27;;;;;;;68.05;28.65;;;9.80;99.90;;;;;;5085082;27;20516;-84
2021/12/15 06:12:55;;;;;;;69.72;27.58;;;9.80;99.90;;;;;;5091356;28;20144;-84
2021/12/15 06:15:24;;;;;;;73.38;29.00;;;9.80;99.90;;;;;;5101488;28;20043;-83
2021/12/15 06:17:57;;;;;;;65.28;27.95;;;9.80;99.90;;;;;;5096749;28;20047;-84
2021/12/15 06:20:24;;;;;;;66.68;27.83;;;9.80;99.90;;;;;;5079064;27;20067;-85
2021/12/15 06:22:53;;;;;;;63.13;28.23;;;10.10;99.90;;;;;;5100764;27;20158;-85
2021/12/15 06:25:18;;;;;;;67.50;27.33;;;9.80;99.90;;;;;;5100889;28;20050;-86
2021/12/15 06:27:44;;;;;;;58.25;25.33;;;10.30;99.90;;;;;;5102834;27;20044;-85
2021/12/15 06:30:10;;;;;;;55.38;26.73;;;9.80;99.90;;;;;;5080725;27;20035;-85
2021/12/15 06:32:37;;;;;;;66.45;27.27;;;9.80;99.90;;;;;;5072800;27;20044;-84
2021/12/15 06:35:04;;;;;;;60.67;27.02;;;9.90;99.90;;;;;;5086775;28;20077;-84
2021/12/15 06:37:30;;;;;;;55.53;25.13;;;9.90;99.90;;;;;;5081128;28;20137;-84
2021/12/15 06:39:56;;;;;;;63.45;25.38;;;9.90;99.90;;;;;;5072918;28;20047;-84
2021/12/15 06:42:22;;;;;;;57.78;26.52;;;9.90;99.90;;;;;;5068397;28;20036;-85
2021/12/15 06:44:47;;;;;;;61.83;24.83;;;9.80;99.90;;;;;;5087721;28;20122;-85
2021/12/15 07:00:30;;;;;;;59.15;24.90;;;9.90;99.90;;;;;;5082211;28;20687;-84
2021/12/15 07:02:57;;;;;;;55.22;23.90;;;9.90;99.90;;;;;;5083247;28;20052;-84
2021/12/15 07:05:25;;;;;;;51.58;23.38;;;10.40;99.90;;;;;;5068379;28;20411;-85
2021/12/15 07:07:51;;;;;;;54.60;25.25;;;9.90;99.90;;;;;;5081589;28;20040;-85
2021/12/15 07:10:21;;;;;;;57.72;23.55;;;9.90;99.90;;;;;;5085385;28;20649;-85
2021/12/15 07:12:47;;;;;;;59.58;23.90;;;9.90;99.90;;;;;;5092999;28;20329;-84
2021/12/15 07:15:13;;;;;;;50.65;22.90;;;9.90;99.90;;;;;;5110263;27;20039;-85
2021/12/15 07:17:40;;;;;;;47.10;22.50;;;10.60;99.90;;;;;;5073215;28;20044;-84
2021/12/15 07:22:53;;;;;;;47.20;22.35;;;9.90;99.90;;;;;;5089547;28;20047;-86
2021/12/15 07:25:21;;;;;;;43.58;21.73;;;9.90;99.90;;;;;;5072159;28;20446;-84
2021/12/15 07:27:47;;;;;;;51.13;22.75;;;9.90;99.90;;;;;;5069779;28;20395;-84
2021/12/15 07:30:13;;;;;;;49.97;22.20;;;9.90;99.90;;;;;;5089192;28;20056;-85
2021/12/15 07:32:39;;;;;;;47.75;21.00;;;9.80;99.90;;;;;;5070352;28;20122;-86
2021/12/15 07:35:06;;;;;;;44.88;20.50;;;9.90;99.90;;;;;;5065935;28;20052;-84
2021/12/15 07:37:32;;;;;;;46.85;21.45;;;9.90;99.90;;;;;;5070643;28;20067;-87
2021/12/15 07:40:00;;;;;;;52.15;21.67;;;9.90;99.90;;;;;;5065599;28;20133;-84
2021/12/15 07:42:43;;;;;;;48.05;20.95;;;9.80;99.90;;;;;;5085127;28;20130;-85
2021/12/15 07:45:11;;;;;;;44.58;19.65;;;9.90;99.90;;;;;;5087187;28;20051;-85
2021/12/15 07:47:37;;;;;;;41.85;20.05;;;9.90;99.90;;;;;;5074753;28;20452;-85
2021/12/15 07:50:04;;;;;;;46.08;21.55;;;9.90;99.90;;;;;;5083360;28;20377;-85
2021/12/15 07:52:30;;;;;;;43.08;19.42;;;9.90;99.90;;;;;;5077668;28;20059;-90
2021/12/15 07:54:56;;;;;;;42.75;17.90;;;9.80;99.90;;;;;;5090513;28;20043;-89
2021/12/15 07:57:23;;;;;;;45.78;17.75;;;10.20;99.90;;;;;;5077859;28;20048;-89
2021/12/15 07:59:50;;;;;;;37.47;16.48;;;9.80;99.90;;;;;;5076809;28;20047;-88
2021/12/15 08:02:16;;;;;;;40.45;17.30;;;10.60;99.90;;;;;;5052470;28;20058;-89
2021/12/15 08:04:42;;;;;;;37.33;15.60;;;9.80;99.90;;;;;;5073822;28;20035;-88
2021/12/15 08:07:08;;;;;;;36.78;15.60;;;10.30;99.90;;;;;;5089563;28;20579;-87
2021/12/15 08:09:34;;;;;;;34.97;16.10;;;9.80;99.90;;;;;;5073361;28;20134;-89
2021/12/15 08:12:02;;;;;;;29.27;14.48;;;9.80;99.90;;;;;;5094352;28;20028;-89
2021/12/15 08:14:28;;;;;;;34.45;15.52;;;9.80;99.90;;;;;;5077793;28;20381;-88
2021/12/15 08:16:54;;;;;;;32.70;14.57;;;9.70;99.90;;;;;;5082581;28;20490;-88
2021/12/15 08:19:20;;;;;;;33.78;15.02;;;9.80;99.90;;;;;;5074512;28;20082;-89
2021/12/15 08:21:46;;;;;;;38.78;15.63;;;10.10;99.90;;;;;;5076941;28;20119;-88
2021/12/15 08:24:13;;;;;;;41.45;15.10;;;10.00;99.90;;;;;;5071836;28;20079;-89
2021/12/15 08:26:39;;;;;;;32.25;14.57;;;9.70;99.90;;;;;;5075122;28;20044;-87
2021/12/15 08:29:05;;;;;;;33.28;15.88;;;9.70;99.90;;;;;;5090274;28;20048;-89
2021/12/15 08:31:31;;;;;;;37.45;14.63;;;9.80;99.90;;;;;;5073935;28;20500;-89
2021/12/15 08:33:56;;;;;;;33.85;16.63;;;9.80;99.90;;;;;;5070770;28;20059;-90
2021/12/15 08:36:22;;;;;;;35.28;16.40;;;9.80;99.90;;;;;;5091248;28;20048;-88
2021/12/15 08:38:49;;;;;;;39.85;16.30;;;9.80;99.90;;;;;;5079514;28;20119;-88
2021/12/15 08:41:19;;;;;;;37.67;16.77;;;9.80;99.90;;;;;;5117251;28;20056;-87
2021/12/15 08:43:45;;;;;;;37.95;16.65;;;9.80;99.90;;;;;;5097037;28;20069;-88
2021/12/15 08:46:17;;;;;;;31.15;15.15;;;9.80;99.90;;;;;;5081051;28;20104;-89
2021/12/15 08:48:45;;;;;;;39.75;14.77;;;9.80;99.90;;;;;;5088045;28;20023;-88
2021/12/15 08:51:13;;;;;;;44.13;15.52;;;9.80;99.90;;;;;;5086929;28;20047;-90
2021/12/15 08:53:41;;;;;;;34.03;14.50;;;9.90;99.90;;;;;;5084525;28;20088;-90
2021/12/15 08:56:08;;;;;;;36.50;16.00;;;9.90;99.90;;;;;;5091520;28;20063;-90
2021/12/15 08:58:35;;;;;;;39.53;15.02;;;9.80;99.90;;;;;;5087252;28;20040;-90
2021/12/15 09:01:02;;;;;;;37.70;15.57;;;9.80;99.90;;;;;;5099309;28;20050;-89
2021/12/15 09:03:28;;;;;;;39.83;17.33;;;10.60;99.90;;;;;;5089786;28;20043;-91
2021/12/15 09:05:57;;;;;;;31.17;14.02;;;10.60;99.90;;;;;;5099303;27;20627;-90
2021/12/15 09:08:25;;;;;;;33.58;15.63;;;10.40;99.90;;;;;;5092134;27;20092;-93
2021/12/15 09:11:07;;;;;;;43.75;17.02;;;10.70;99.90;;;;;;5090557;27;20429;-90
2021/12/15 09:13:34;;;;;;;38.25;16.63;;;9.80;99.90;;;;;;5111029;27;20040;-89
2021/12/15 09:16:04;;;;;;;39.00;15.98;;;9.90;99.90;;;;;;5093307;27;20039;-91
2021/12/15 09:18:30;;;;;;;36.83;16.15;;;10.00;99.90;;;;;;5101192;27;20054;-89
2021/12/15 09:20:58;;;;;;;34.95;16.05;;;9.70;99.90;;;;;;5085107;27;20039;-88
2021/12/15 09:23:26;;;;;;;39.53;16.35;;;10.30;99.90;;;;;;5085917;28;20604;-89
2021/12/15 09:25:51;;;;;;;40.70;16.00;;;9.90;99.90;;;;;;5082308;27;20043;-89
2021/12/15 09:28:19;;;;;;;36.50;16.02;;;10.00;99.90;;;;;;5085264;27;20820;-89
2021/12/15 09:30:47;;;;;;;33.20;16.30;;;10.00;99.90;;;;;;5085353;27;20042;-89
2021/12/15 09:33:25;;;;;;;37.63;15.35;;;10.00;99.90;;;;;;5093166;28;20075;-88
2021/12/15 09:35:52;;;;;;;34.55;16.50;;;10.00;99.90;;;;;;5102988;27;20103;-90
2021/12/15 09:38:19;;;;;;;42.78;14.55;;;10.30;99.90;;;;;;5080830;27;20507;-89
2021/12/15 09:40:47;;;;;;;28.45;13.55;;;10.60;99.90;;;;;;5085915;27;20065;-88
2021/12/15 09:43:15;;;;;;;30.58;13.73;;;10.10;99.90;;;;;;5085624;27;20472;-90
2021/12/15 09:45:56;;;;;;;27.13;12.55;;;10.10;99.90;;;;;;5090631;27;20035;-87
2021/12/15 10:02:05;;;;;;;22.60;11.57;;;10.30;99.90;;;;;;5103154;27;20044;-89
2021/12/15 10:05:00;;;;;;;26.60;11.40;;;10.30;99.90;;;;;;5088103;27;20039;-91
2021/12/15 10:18:48;;;;;;;25.23;12.40;;;10.30;99.90;;;;;;5100796;27;20061;-91
2021/12/15 10:21:27;;;;;;;26.50;11.45;;;10.20;99.90;;;;;;5104222;27;20043;-88
2021/12/15 10:23:54;;;;;;;28.85;11.55;;;10.20;99.90;;;;;;5091562;27;20740;-87
2021/12/15 10:26:21;;;;;;;26.95;11.30;;;10.20;99.90;;;;;;5096004;27;20464;-87
2021/12/15 10:28:52;;;;;;;25.40;10.73;;;10.20;99.90;;;;;;5085333;27;20047;-87
2021/12/15 10:31:20;;;;;;;28.52;11.63;;;10.20;99.90;;;;;;5083688;28;20043;-88
2021/12/15 10:33:58;;;;;;;27.20;10.57;;;10.20;99.90;;;;;;5094341;27;20039;-87
2021/12/15 10:36:29;;;;;;;23.45;11.15;;;10.20;99.90;;;;;;5101246;27;20504;-87
2021/12/15 10:39:00;;;;;;;21.30;9.55;;;10.20;99.90;;;;;;5098044;27;20050;-88
2021/12/15 10:41:36;;;;;;;17.98;9.88;;;10.40;99.90;;;;;;5088555;27;20047;-87
2021/12/15 10:44:06;;;;;;;21.42;9.68;;;10.20;99.90;;;;;;5079636;28;20031;-94
2021/12/15 10:46:54;;;;;;;26.90;10.27;;;10.20;99.90;;;;;;5085403;27;20097;-88
2021/12/15 10:49:29;;;;;;;20.60;9.52;;;10.30;99.90;;;;;;5079313;27;20051;-87
2021/12/15 10:52:02;;;;;;;21.33;8.98;;;10.30;99.90;;;;;;5103559;27;20465;-89
2021/12/15 10:54:39;;;;;;;19.92;9.40;;;10.30;99.90;;;;;;5089780;27;20051;-90
2021/12/15 10:57:09;;;;;;;21.55;9.57;;;10.30;99.90;;;;;;5081580;27;20038;-88
2021/12/15 10:59:38;;;;;;;25.00;10.10;;;10.30;99.90;;;;;;5087567;27;20464;-90
2021/12/15 11:02:21;;;;;;;21.90;9.65;;;10.30;99.90;;;;;;5093613;27;20053;-89
2021/12/15 11:04:50;;;;;;;25.20;9.38;;;10.30;99.90;;;;;;5083290;27;20031;-89
2021/12/15 11:07:26;;;;;;;22.25;9.43;;;10.40;99.90;;;;;;5104775;27;20679;-90
2021/12/15 11:09:54;;;;;;;18.15;9.05;;;10.40;99.90;;;;;;5083465;27;20127;-89
2021/12/15 11:12:59;;;;;;;22.23;8.93;;;11.00;99.90;;;;;;5105697;27;20043;-90
2021/12/15 11:15:27;;;;;;;20.55;9.23;;;10.50;99.90;;;;;;5055934;27;20523;-88
2021/12/15 11:17:56;;;;;;;18.75;7.95;;;11.00;99.90;;;;;;5082847;27;21616;-89
2021/12/15 11:20:29;;;;;;;20.38;8.18;;;10.60;99.90;;;;;;5099302;27;20039;-90
2021/12/15 11:23:11;;;;;;;18.40;7.35;;;10.50;99.90;;;;;;5086389;27;20031;-89
2021/12/15 11:25:49;;;;;;;18.00;7.30;;;10.50;99.90;;;;;;5079808;27;20039;-89
2021/12/15 11:28:23;;;;;;;16.80;6.68;;;10.50;99.90;;;;;;5106282;27;20039;-89
2021/12/15 11:31:01;;;;;;;16.05;6.03;;;10.50;99.90;;;;;;5100050;27;20050;-92
2021/12/15 11:33:32;;;;;;;14.50;5.88;;;10.50;99.90;;;;;;5084460;27;20086;-90
2021/12/15 11:36:07;;;;;;;14.73;4.97;;;10.60;99.90;;;;;;5100938;27;21533;-86
2021/12/15 11:38:58;;;;;;;16.88;5.45;;;10.50;99.90;;;;;;5097013;27;20111;-90
2021/12/15 11:41:40;;;;;;;16.20;5.70;;;10.60;99.90;;;;;;5079256;27;20046;-87
2021/12/15 11:44:15;;;;;;;15.50;5.20;;;10.60;99.90;;;;;;5079398;27;20054;-91
2021/12/15 11:46:44;;;;;;;13.38;4.53;;;10.80;99.90;;;;;;5083556;27;21463;-93
2021/12/15 11:49:20;;;;;;;12.45;4.72;;;10.70;99.90;;;;;;5096920;27;20047;-90
2021/12/15 11:51:52;;;;;;;13.43;4.53;;;10.70;99.90;;;;;;5086200;27;20039;-92
2021/12/15 11:54:20;;;;;;;17.33;5.32;;;10.60;99.90;;;;;;5079764;27;20043;-86
2021/12/15 11:56:58;;;;;;;18.70;5.00;;;10.60;99.90;;;;;;5079051;27;20059;-88
2021/12/15 11:59:31;;;;;;;16.85;4.70;;;10.60;99.90;;;;;;5078791;27;20645;-90
2021/12/15 12:02:01;;;;;;;12.57;4.20;;;10.60;99.90;;;;;;5082585;28;20130;-88
2021/12/15 12:04:40;;;;;;;11.23;4.05;;;10.60;99.90;;;;;;5083158;28;20047;-90
2021/12/15 12:07:15;;;;;;;18.27;4.97;;;10.60;99.90;;;;;;5089599;28;20035;-88
2021/12/15 12:09:43;;;;;;;14.45;4.40;;;10.60;99.90;;;;;;5112049;27;20035;-88
2021/12/15 12:12:10;;;;;;;14.38;4.22;;;10.70;99.90;;;;;;5081794;28;20420;-87
2021/12/15 12:14:54;;;;;;;11.73;3.55;;;10.60;99.90;;;;;;5098393;28;20445;-93
2021/12/15 12:17:33;;;;;;;12.32;3.80;;;10.60;99.90;;;;;;5090486;28;20043;-90
2021/12/15 12:20:07;;;;;;;19.02;4.28;;;10.50;99.90;;;;;;5083195;28;20043;-89
2021/12/15 12:22:34;;;;;;;13.68;4.43;;;10.50;99.90;;;;;;5081707;28;20576;-89
2021/12/15 12:25:08;;;;;;;14.30;3.90;;;10.50;99.90;;;;;;5078178;28;20039;-87
2021/12/15 12:27:35;;;;;;;14.80;4.13;;;10.50;99.90;;;;;;5077610;28;20066;-88
2021/12/15 12:30:07;;;;;;;17.45;4.53;;;10.50;99.90;;;;;;5099223;28;20054;-87
2021/12/15 12:32:32;;;;;;;;;;;10.40;99.90;;;;;;5081038;28;20176;-86
2021/12/15 12:34:59;;;;;;;16.30;4.57;;;10.50;99.90;;;;;;5082625;28;20018;-89
2021/12/15 12:37:24;;;;;;;13.07;4.68;;;10.40;99.90;;;;;;5082428;28;20107;-87
2021/12/15 12:39:58;;;;;;;16.10;4.45;;;10.90;99.90;;;;;;5093442;28;20051;-89
2021/12/15 12:42:40;;;;;;;10.95;4.05;;;10.40;99.90;;;;;;5082783;28;20036;-88
2021/12/15 12:45:37;;;;;;;14.98;4.82;;;10.30;99.90;;;;;;5079047;28;20047;-87
2021/12/15 12:48:32;;;;;;;12.68;4.25;;;10.30;99.90;;;;;;5077244;28;21676;-86
2021/12/15 12:59:46;;;;;;;15.05;3.15;;;10.30;99.90;;;;;;5083305;28;20500;-88
2021/12/15 13:02:40;;;;;;;12.70;3.03;;;10.80;99.90;;;;;;5075169;28;20044;-88
2021/12/15 13:05:45;;;;;;;8.48;2.70;;;10.20;99.90;;;;;;5077324;28;21031;-87
2021/12/15 13:08:25;;;;;;;10.10;2.60;;;10.40;99.90;;;;;;5091667;28;20051;-89
2021/12/15 13:10:56;;;;;;;14.00;3.13;;;10.10;99.90;;;;;;5074991;28;21189;-89
2021/12/15 13:13:54;;;;;;;6.40;2.35;;;10.00;99.90;;;;;;5077211;28;20066;-88
2021/12/15 13:16:37;;;;;;;12.27;2.65;;;10.00;99.90;;;;;;5074054;28;20134;-87
2021/12/15 13:19:12;;;;;;;8.73;2.40;;;10.00;99.90;;;;;;5095530;28;20271;-87
2021/12/15 13:22:02;;;;;;;9.55;2.28;;;10.00;99.90;;;;;;5084886;28;20432;-89
2021/12/15 13:31:00;;;;;;;12.50;1.88;;;9.90;99.90;;;;;;5096032;28;20044;-88
2021/12/15 13:33:32;;;;;;;10.75;2.28;;;9.80;99.90;;;;;;5084779;28;20427;-86
2021/12/15 13:36:04;;;;;;;7.78;1.98;;;9.80;99.90;;;;;;5081475;28;20043;-88
2021/12/15 13:38:37;;;;;;;15.55;2.13;;;9.80;99.90;;;;;;5082352;27;20442;-88
2021/12/15 13:41:36;;;;;;;6.95;2.13;;;9.70;99.90;;;;;;5094527;27;20040;-86
2021/12/15 13:44:30;;;;;;;8.60;2.03;;;9.70;99.90;;;;;;5102779;27;20043;-87
2021/12/15 13:47:24;;;;;;;8.00;1.45;;;9.60;99.90;;;;;;5084256;27;20335;-85
2021/12/15 13:49:59;;;;;;;7.00;1.80;;;9.50;99.90;;;;;;5106824;27;20043;-87
2021/12/15 13:52:45;;;;;;;7.25;1.75;;;9.50;99.90;;;;;;5085972;27;20039;-87
2021/12/15 13:55:15;;;;;;;7.90;1.90;;;9.60;99.90;;;;;;5089338;27;20031;-86
2021/12/15 13:57:46;;;;;;;12.43;2.17;;;9.30;99.90;;;;;;5085311;27;20043;-87
2021/12/15 14:00:15;;;;;;;9.50;1.70;;;9.30;99.90;;;;;;5087788;27;20387;-87
2021/12/15 14:02:52;;;;;;;9.05;1.85;;;9.30;99.90;;;;;;5083873;27;20082;-88
2021/12/15 14:05:17;;;;;;;8.98;2.22;;;9.40;99.90;;;;;;5086178;27;20499;-88
2021/12/15 14:07:59;;;;;;;6.88;1.80;;;9.20;99.90;;;;;;5083165;27;20104;-87
2021/12/15 14:10:24;;;;;;;10.25;1.80;;;9.20;99.90;;;;;;5078689;27;20104;-86
2021/12/15 14:12:55;;;;;;;8.10;2.13;;;9.10;99.90;;;;;;5084527;27;20051;-88
2021/12/15 14:15:27;;;;;;;7.43;2.42;;;9.40;99.90;;;;;;5089397;27;20038;-87
2021/12/15 14:18:12;;;;;;;8.18;2.00;;;9.20;99.90;;;;;;5086495;27;20039;-86
2021/12/15 14:20:49;;;;;;;8.93;1.88;;;9.20;99.90;;;;;;5095589;27;20487;-87
2021/12/15 14:23:22;;;;;;;11.25;2.13;;;9.20;99.90;;;;;;5097042;27;20687;-86